createdAt,value
2018-08-17T00:00:35.687Z,100821.67
2018-08-17T00:03:04.606Z,100814.48
2018-08-17T00:05:33.574Z,100813.84
2018-08-17T00:08:02.389Z,100809.47
2018-08-17T00:10:31.185Z,100815.97
2018-08-17T00:13:00.262Z,100812.16
2018-08-17T00:15:29.046Z,100808.94
2018-08-17T00:17:57.974Z,100808.94
2018-08-17T00:20:27.181Z,100809.47
2018-08-17T00:22:56.140Z,100806.13
2018-08-17T00:25:25.189Z,100801.59
2018-08-17T00:27:54.180Z,100806.47
2018-08-17T00:30:22.928Z,100806.17
2018-08-17T00:32:51.794Z,100809.48
2018-08-17T00:35:20.448Z,100808.62
2018-08-17T00:37:49.119Z,100803.92
2018-08-17T00:40:18.076Z,100811.61
2018-08-17T00:42:46.992Z,100809.64
2018-08-17T00:45:15.592Z,100811.61
2018-08-17T00:47:44.538Z,100810.80
2018-08-17T00:50:13.326Z,100805.67
2018-08-17T00:52:42.323Z,100805.13
2018-08-17T00:55:11.317Z,100806.96
2018-08-17T00:57:40.495Z,100804.78
2018-08-17T01:00:09.719Z,100798.45
2018-08-17T01:02:38.768Z,100793.94
2018-08-17T01:05:07.496Z,100791.62
2018-08-17T01:07:36.294Z,100792.95
2018-08-17T01:10:05.595Z,100789.58
2018-08-17T01:12:34.340Z,100781.91
2018-08-17T01:15:03.303Z,100791.96
2018-08-17T01:17:31.942Z,100785.77
2018-08-17T01:20:00.633Z,100782.60
2018-08-17T01:22:29.993Z,100787.80
2018-08-17T01:24:59.073Z,100778.94
2018-08-17T01:27:28.016Z,100776.43
2018-08-17T01:29:57.027Z,100776.77
2018-08-17T01:32:26.162Z,100773.91
2018-08-17T01:34:54.825Z,100765.93
2018-08-17T01:37:23.583Z,100764.27
2018-08-17T01:39:52.255Z,100756.42
2018-08-17T01:42:21.174Z,100754.24
2018-08-17T01:44:49.970Z,100761.09
2018-08-17T01:47:18.659Z,100751.58
2018-08-17T01:49:47.701Z,100753.12
2018-08-17T01:52:16.289Z,100750.79
2018-08-17T01:54:45.270Z,100752.48
2018-08-17T01:57:14.573Z,100745.00
2018-08-17T01:59:43.637Z,100739.81
2018-08-17T02:02:12.763Z,100747.99
2018-08-17T02:04:41.922Z,100750.22
2018-08-17T02:07:10.895Z,100754.92
2018-08-17T02:09:39.816Z,100748.73
2018-08-17T02:12:09.053Z,100740.41
2018-08-17T02:14:37.872Z,100742.06
2018-08-17T02:17:06.728Z,100739.73
2018-08-17T02:19:35.550Z,100735.21
2018-08-17T02:22:04.389Z,100717.47
2018-08-17T02:24:33.081Z,100726.84
2018-08-17T02:27:02.138Z,100725.00
2018-08-17T02:29:30.769Z,100728.02
2018-08-17T02:31:59.417Z,100729.03
2018-08-17T02:34:28.317Z,100731.05
2018-08-17T02:36:57.060Z,100730.56
2018-08-17T02:39:25.776Z,100732.39
2018-08-17T02:41:54.490Z,100734.27
2018-08-17T02:44:23.238Z,100724.22
2018-08-17T02:46:51.875Z,100729.08
2018-08-17T02:49:20.579Z,100725.21
2018-08-17T02:51:49.343Z,100721.20
2018-08-17T02:54:18.215Z,100733.58
2018-08-17T02:56:47.014Z,100721.84
2018-08-17T02:59:16.055Z,100721.00
2018-08-17T03:01:44.797Z,100714.84
2018-08-17T03:04:13.583Z,100718.02
2018-08-17T03:06:42.529Z,100726.20
2018-08-17T03:09:12.369Z,100718.86
2018-08-17T03:11:41.896Z,100725.20
2018-08-17T03:14:10.606Z,100706.48
2018-08-17T03:16:39.486Z,100712.17
2018-08-17T03:19:08.626Z,100712.52
2018-08-17T03:21:37.246Z,100711.34
2018-08-17T03:24:06.191Z,100708.51
2018-08-17T03:26:34.826Z,100707.87
2018-08-17T03:29:03.774Z,100704.69
2018-08-17T03:31:32.724Z,100699.84
2018-08-17T03:34:01.531Z,100696.01
2018-08-17T03:36:30.352Z,100694.02
2018-08-17T03:38:58.953Z,100689.17
2018-08-17T03:41:27.921Z,100689.85
2018-08-17T03:43:56.682Z,100683.66
2018-08-17T03:46:25.850Z,100680.48
2018-08-17T03:48:54.528Z,100686.34
2018-08-17T03:51:23.417Z,100683.05
2018-08-17T03:53:52.146Z,100686.41
2018-08-17T03:56:21.292Z,100685.06
2018-08-17T03:58:49.958Z,100683.73
2018-08-17T04:01:18.824Z,100681.23
2018-08-17T04:03:47.520Z,100681.58
2018-08-17T04:06:17.034Z,100682.61
2018-08-17T04:08:45.698Z,100674.23
2018-08-17T04:11:14.600Z,100680.61
2018-08-17T04:13:43.592Z,100672.42
2018-08-17T04:16:12.363Z,100670.58
2018-08-17T04:18:45.586Z,100672.59
2018-08-17T04:21:14.233Z,100669.92
2018-08-17T04:23:42.877Z,100673.28
2018-08-17T04:26:11.751Z,100670.08
2018-08-17T04:28:40.758Z,100670.60
2018-08-17T04:31:09.449Z,100672.44
2018-08-17T04:33:38.321Z,100674.62
2018-08-17T04:36:07.008Z,100685.35
2018-08-17T04:38:35.774Z,100685.17
2018-08-17T04:41:04.977Z,100688.19
2018-08-17T04:43:33.686Z,100702.77
2018-08-17T04:46:03.066Z,100686.69
2018-08-17T04:48:32.226Z,100680.83
2018-08-17T04:51:01.038Z,100684.19
2018-08-17T04:53:29.797Z,100698.26
2018-08-17T04:55:58.593Z,100686.76
2018-08-17T04:58:28.197Z,100687.77
2018-08-17T05:00:57.593Z,100684.22
2018-08-17T05:03:26.430Z,100674.84
2018-08-17T05:05:55.371Z,100684.88
2018-08-17T05:08:24.096Z,100668.30
2018-08-17T05:10:53.038Z,100673.03
2018-08-17T05:13:21.706Z,100659.91
2018-08-17T05:15:50.592Z,100666.45
2018-08-17T05:18:19.481Z,100675.30
2018-08-17T05:20:48.306Z,100676.13
2018-08-17T05:23:17.292Z,100666.53
2018-08-17T05:25:46.487Z,100659.95
2018-08-17T05:28:15.259Z,100651.03
2018-08-17T05:30:44.024Z,100649.23
2018-08-17T05:33:12.810Z,100642.89
2018-08-17T05:35:41.578Z,100646.50
2018-08-17T05:38:10.435Z,100632.89
2018-08-17T05:40:39.523Z,100636.66
2018-08-17T05:43:08.615Z,100626.02
2018-08-17T05:45:37.367Z,100641.41
2018-08-17T05:48:06.190Z,100636.86
2018-08-17T05:50:35.400Z,100637.35
2018-08-17T05:53:04.920Z,100638.46
2018-08-17T05:55:33.888Z,100599.36
2018-08-17T05:58:02.968Z,100634.40
2018-08-17T06:00:31.801Z,100629.95
2018-08-17T06:03:00.677Z,100622.92
2018-08-17T06:05:29.732Z,100629.66
2018-08-17T06:07:58.765Z,100610.80
2018-08-17T06:10:27.485Z,100606.74
2018-08-17T06:12:56.547Z,100607.09
2018-08-17T06:15:25.159Z,100618.45
2018-08-17T06:17:54.103Z,100611.25
2018-08-17T06:20:23.146Z,100606.95
2018-08-17T06:22:52.187Z,100598.68
2018-08-17T06:25:21.261Z,100611.15
2018-08-17T06:27:50.234Z,100610.03
2018-08-17T06:30:19.129Z,100618.43
2018-08-17T06:32:48.089Z,100629.27
2018-08-17T06:35:17.064Z,100628.84
2018-08-17T06:37:46.043Z,100630.84
2018-08-17T06:40:15.053Z,100626.35
2018-08-17T06:42:43.805Z,100639.19
2018-08-17T06:45:13.476Z,100640.59
2018-08-17T06:47:42.440Z,100636.21
2018-08-17T06:50:11.943Z,100616.53
2018-08-17T06:52:41.716Z,100617.86
2018-08-17T06:55:11.777Z,100613.30
2018-08-17T06:57:40.940Z,100612.16
2018-08-17T07:00:12.499Z,100608.48
2018-08-17T07:02:41.532Z,100615.58
2018-08-17T07:05:10.644Z,100629.84
2018-08-17T07:07:40.221Z,100638.23
2018-08-17T07:10:11.042Z,100638.23
2018-08-17T07:12:40.460Z,100633.55
2018-08-17T07:15:09.890Z,100643.93
2018-08-17T07:17:39.030Z,100643.14
2018-08-17T07:20:09.790Z,100643.77
2018-08-17T07:22:38.595Z,100627.08
2018-08-17T07:25:08.294Z,100628.45
2018-08-17T07:27:37.206Z,100624.33
2018-08-17T07:30:07.999Z,100637.56
2018-08-17T07:32:36.599Z,100628.50
2018-08-17T07:35:06.756Z,100631.38
2018-08-17T07:37:35.766Z,100632.88
2018-08-17T07:40:05.193Z,100623.41
2018-08-17T07:42:34.681Z,100627.05
2018-08-17T07:45:03.452Z,100658.77
2018-08-17T07:47:32.209Z,100628.37
2018-08-17T07:50:01.463Z,100627.61
2018-08-17T07:52:30.571Z,100630.05
2018-08-17T07:54:59.572Z,100616.58
2018-08-17T07:57:28.515Z,100634.29
2018-08-17T07:59:57.620Z,100626.02
2018-08-17T08:02:26.279Z,100629.44
2018-08-17T08:04:55.161Z,100614.70
2018-08-17T08:07:23.806Z,100616.77
2018-08-17T08:09:52.691Z,100625.34
2018-08-17T08:12:21.736Z,100623.81
2018-08-17T08:14:50.788Z,100634.48
2018-08-17T08:17:19.768Z,100616.95
2018-08-17T08:19:58.548Z,100615.30
2018-08-17T08:22:27.744Z,100620.37
2018-08-17T08:24:56.582Z,100609.42
2018-08-17T08:27:25.267Z,100606.41
2018-08-17T08:29:54.214Z,100616.42
2018-08-17T08:32:22.906Z,100617.06
2018-08-17T08:34:51.923Z,100602.98
2018-08-17T08:37:21.070Z,100597.88
2018-08-17T08:39:50.375Z,100588.73
2018-08-17T08:42:19.119Z,100572.25
2018-08-17T08:44:47.963Z,100589.40
2018-08-17T08:47:16.792Z,100599.61
2018-08-17T08:49:45.856Z,100604.43
2018-08-17T08:52:14.486Z,100593.17
2018-08-17T08:54:43.691Z,100582.88
2018-08-17T08:57:12.766Z,100595.12
2018-08-17T08:59:41.443Z,100591.19
2018-08-17T09:02:10.239Z,100583.80
2018-08-17T09:04:39.247Z,100559.59
2018-08-17T09:07:08.675Z,100584.17
2018-08-17T09:09:37.428Z,100565.56
2018-08-17T09:12:06.109Z,100566.16
2018-08-17T09:14:35.206Z,100568.51
2018-08-17T09:17:03.945Z,100567.53
2018-08-17T09:19:33.088Z,100572.47
2018-08-17T09:22:02.229Z,100592.91
2018-08-17T09:24:30.961Z,100587.72
2018-08-17T09:26:59.749Z,100576.86
2018-08-17T09:29:28.387Z,100580.89
2018-08-17T09:31:57.108Z,100575.01
2018-08-17T09:34:25.783Z,100579.44
2018-08-17T09:36:54.591Z,100563.08
2018-08-17T09:39:23.860Z,100590.25
2018-08-17T09:41:52.640Z,100595.45
2018-08-17T09:44:21.615Z,100596.48
2018-08-17T09:46:50.698Z,100579.34
2018-08-17T09:49:19.769Z,100575.25
2018-08-17T09:51:48.695Z,100545.41
2018-08-17T09:54:17.478Z,100582.56
2018-08-17T09:56:46.295Z,100565.31
2018-08-17T09:59:15.031Z,100560.66
2018-08-17T10:01:49.055Z,100575.25
2018-08-17T10:04:23.094Z,100571.79
2018-08-17T10:06:57.015Z,100561.35
2018-08-17T10:09:31.207Z,100566.42
2018-08-17T10:11:59.833Z,100561.48
2018-08-17T10:14:28.815Z,100555.97
2018-08-17T10:16:58.013Z,100548.56
2018-08-17T10:19:26.672Z,100566.01
2018-08-17T10:21:56.427Z,100558.02
2018-08-17T10:24:25.469Z,100553.95
2018-08-17T10:26:55.204Z,100561.48
2018-08-17T10:29:24.250Z,100550.48
2018-08-17T10:31:53.226Z,100561.36
2018-08-17T10:34:22.077Z,100546.48
2018-08-17T10:36:50.898Z,100554.56
2018-08-17T10:39:19.615Z,100538.45
2018-08-17T10:41:48.337Z,100546.09
2018-08-17T10:44:17.067Z,100530.28
2018-08-17T10:46:45.942Z,100530.94
2018-08-17T10:49:14.763Z,100549.78
2018-08-17T10:51:43.442Z,100566.66
2018-08-17T10:54:12.289Z,100552.19
2018-08-17T10:56:41.155Z,100553.17
2018-08-17T10:59:10.266Z,100525.72
2018-08-17T11:01:43.755Z,100530.91
2018-08-17T11:04:12.589Z,100542.63
2018-08-17T11:06:41.343Z,100554.30
2018-08-17T11:09:11.235Z,100532.13
2018-08-17T11:11:41.985Z,100547.40
2018-08-17T11:14:10.830Z,100543.19
2018-08-17T11:16:39.685Z,100541.81
2018-08-17T11:19:08.545Z,100544.00
2018-08-17T11:21:37.210Z,100534.98
2018-08-17T11:24:06.074Z,100530.57
2018-08-17T11:26:35.068Z,100525.48
2018-08-17T11:29:04.055Z,100559.23
2018-08-17T11:31:32.794Z,100540.07
2018-08-17T11:34:01.427Z,100521.63
2018-08-17T11:36:30.175Z,100531.47
2018-08-17T11:38:58.922Z,100523.64
2018-08-17T11:41:27.869Z,100541.77
2018-08-17T11:44:03.146Z,100547.98
2018-08-17T11:46:32.240Z,100548.52
2018-08-17T11:49:01.196Z,100542.73
2018-08-17T11:51:30.123Z,100547.17
2018-08-17T11:53:58.901Z,100542.90
2018-08-17T11:56:27.620Z,100541.22
2018-08-17T11:58:56.749Z,100538.67
2018-08-17T12:01:27.762Z,100552.88
2018-08-17T12:04:03.329Z,100547.91
2018-08-17T12:06:32.080Z,100548.64
2018-08-17T12:09:01.040Z,100548.85
2018-08-17T12:11:29.843Z,100547.15
2018-08-17T12:13:58.570Z,100556.78
2018-08-17T12:16:27.581Z,100562.88
2018-08-17T12:18:56.568Z,100563.58
2018-08-17T12:21:25.240Z,100554.89
2018-08-17T12:23:54.193Z,100569.25
2018-08-17T12:26:23.042Z,100560.30
2018-08-17T12:28:51.739Z,100570.20
2018-08-17T12:31:20.623Z,100564.34
2018-08-17T12:33:49.253Z,100570.47
2018-08-17T12:36:18.073Z,100575.09
2018-08-17T12:38:46.757Z,100563.86
2018-08-17T12:41:15.531Z,100569.60
2018-08-17T12:43:44.343Z,100565.55
2018-08-17T12:46:13.244Z,100564.39
2018-08-17T12:48:42.285Z,100552.56
2018-08-17T12:51:11.339Z,100565.23
2018-08-17T12:53:40.022Z,100569.48
2018-08-17T12:56:08.953Z,100560.16
2018-08-17T12:58:37.986Z,100549.29
2018-08-17T13:01:06.709Z,100544.61
2018-08-17T13:03:35.443Z,100544.97
2018-08-17T13:06:04.254Z,100551.64
2018-08-17T13:08:33.163Z,100556.36
2018-08-17T13:11:01.978Z,100553.09
2018-08-17T13:13:30.656Z,100548.30
2018-08-17T13:16:06.701Z,100551.75
2018-08-17T13:18:37.294Z,100538.74
2018-08-17T13:21:06.378Z,100529.05
2018-08-17T13:23:35.290Z,100541.02
2018-08-17T13:26:04.420Z,100537.38
2018-08-17T13:28:33.312Z,100538.12
2018-08-17T13:31:02.176Z,100531.67
2018-08-17T13:33:30.845Z,100527.02
2018-08-17T13:35:59.918Z,100528.39
2018-08-17T13:38:28.572Z,100527.17
2018-08-17T13:40:57.427Z,100532.68
2018-08-17T13:43:26.029Z,100527.83
2018-08-17T13:45:54.767Z,100539.93
2018-08-17T13:48:23.732Z,100536.91
2018-08-17T13:50:52.331Z,100531.02
2018-08-17T13:53:21.030Z,100544.55
2018-08-17T13:55:49.622Z,100543.97
2018-08-17T13:58:18.274Z,100537.56
2018-08-17T14:00:47.389Z,100537.62
2018-08-17T14:03:16.171Z,100543.09
2018-08-17T14:05:45.027Z,100541.91
2018-08-17T14:08:13.700Z,100548.36
2018-08-17T14:10:42.559Z,100542.47
2018-08-17T14:13:11.787Z,100532.52
2018-08-17T14:15:40.409Z,100527.91
2018-08-17T14:18:09.411Z,100529.33
2018-08-17T14:20:38.510Z,100530.95
2018-08-17T14:23:07.413Z,100526.02
2018-08-17T14:25:36.323Z,100525.45
2018-08-17T14:28:05.296Z,100527.94
2018-08-17T14:30:34.165Z,100524.05
2018-08-17T14:33:03.037Z,100517.16
2018-08-17T14:35:31.864Z,100533.45
2018-08-17T14:38:00.501Z,100526.02
2018-08-17T14:40:29.255Z,100555.04
2018-08-17T14:42:58.046Z,100541.14
2018-08-17T14:45:26.693Z,100539.45
2018-08-17T14:47:55.983Z,100535.80
2018-08-17T14:50:24.911Z,100526.89
2018-08-17T14:52:53.709Z,100537.30
2018-08-17T14:55:22.467Z,100542.30
2018-08-17T14:57:51.273Z,100543.38
2018-08-17T15:00:20.157Z,100537.22
2018-08-17T15:02:49.703Z,100531.09
2018-08-17T15:05:19.171Z,100550.17
2018-08-17T15:07:47.930Z,100543.45
2018-08-17T15:10:16.725Z,100553.03
2018-08-17T15:12:45.968Z,100554.09
2018-08-17T15:15:15.077Z,100561.53
2018-08-17T15:17:44.022Z,100563.24
2018-08-17T15:20:13.529Z,100558.22
2018-08-17T15:22:42.921Z,100558.19
2018-08-17T15:25:12.250Z,100555.64
2018-08-17T15:27:41.152Z,100563.81
2018-08-17T15:30:11.854Z,100573.30
2018-08-17T15:32:41.648Z,100573.91
2018-08-17T15:35:11.189Z,100572.13
2018-08-17T15:37:40.543Z,100573.36
2018-08-17T15:40:11.708Z,100579.71
2018-08-17T15:42:41.184Z,100572.22
2018-08-17T15:45:10.886Z,100577.66
2018-08-17T15:47:39.709Z,100564.55
2018-08-17T15:50:14.675Z,100566.12
2018-08-17T15:52:43.840Z,100575.04
2018-08-17T15:55:13.170Z,100566.12
2018-08-17T15:57:41.965Z,100569.65
2018-08-17T16:00:12.947Z,100568.23
2018-08-17T16:02:41.884Z,100559.57
2018-08-17T16:05:10.746Z,100542.80
2018-08-17T16:07:39.730Z,100554.16
2018-08-17T16:10:10.633Z,100567.42
2018-08-17T16:12:39.540Z,100559.82
2018-08-17T16:15:09.598Z,100557.73
2018-08-17T16:17:38.825Z,100561.94
2018-08-17T16:20:09.084Z,100547.05
2018-08-17T16:22:38.069Z,100540.20
2018-08-17T16:25:07.955Z,100547.55
2018-08-17T16:27:36.804Z,100536.86
2018-08-17T16:30:06.989Z,100538.53
2018-08-17T16:32:36.000Z,100537.48
2018-08-17T16:35:04.871Z,100535.87
2018-08-17T16:37:34.146Z,100534.78
2018-08-17T16:40:02.974Z,100528.99
2018-08-17T16:42:35.278Z,100531.64
2018-08-17T16:45:05.124Z,100529.42
2018-08-17T16:47:33.786Z,100543.90
2018-08-17T16:50:02.863Z,100538.31
2018-08-17T16:52:31.608Z,100545.55
2018-08-17T16:55:00.288Z,100527.59
2018-08-17T16:57:28.935Z,100542.78
2018-08-17T16:59:57.829Z,100530.16
2018-08-17T17:02:26.531Z,100540.12
2018-08-17T17:04:55.315Z,100532.46
2018-08-17T17:07:29.205Z,100532.52
2018-08-17T17:09:58.762Z,100521.52
2018-08-17T17:12:28.142Z,100528.63
2018-08-17T17:15:05.187Z,100522.77
2018-08-17T17:17:34.532Z,100531.24
2018-08-17T17:20:03.720Z,100535.12
2018-08-17T17:22:32.348Z,100542.91
2018-08-17T17:25:06.218Z,100540.55
2018-08-17T17:27:34.899Z,100547.93
2018-08-17T17:30:03.826Z,100411.52
2018-08-17T17:32:32.528Z,100544.56
2018-08-17T17:35:01.389Z,100543.46
2018-08-17T17:37:30.007Z,100544.52
2018-08-17T17:39:58.974Z,100546.77
2018-08-17T17:42:27.932Z,100545.60
2018-08-17T17:44:56.606Z,100533.57
2018-08-17T17:47:25.483Z,100535.25
2018-08-17T17:49:54.170Z,100527.56
2018-08-17T17:52:22.812Z,100524.55
2018-08-17T17:54:51.562Z,100522.20
2018-08-17T17:57:20.392Z,100541.72
2018-08-17T18:00:03.617Z,100546.30
2018-08-17T18:02:32.440Z,100539.26
2018-08-17T18:05:01.166Z,100522.86
2018-08-17T18:07:35.908Z,100519.00
2018-08-17T18:10:04.722Z,100525.92
2018-08-17T18:12:33.947Z,100519.22
2018-08-17T18:15:03.230Z,100512.17
2018-08-17T18:17:32.071Z,100512.17
2018-08-17T18:20:00.770Z,100530.97
2018-08-17T18:22:32.671Z,100529.00
2018-08-17T18:25:06.726Z,100530.50
2018-08-17T18:27:35.894Z,100525.51
2018-08-17T18:30:05.395Z,100520.98
2018-08-17T18:32:34.360Z,100536.58
2018-08-17T18:35:03.483Z,100536.14
2018-08-17T18:37:32.761Z,100534.80
2018-08-17T18:40:01.529Z,100540.00
2018-08-17T18:42:30.371Z,100541.84
2018-08-17T18:44:59.168Z,100547.44
2018-08-17T18:50:34.195Z,100558.88
2018-08-17T18:53:06.650Z,100539.77
2018-08-17T18:55:40.794Z,100548.48
2018-08-17T18:58:09.500Z,100559.21
2018-08-17T19:00:38.265Z,100556.03
2018-08-17T19:03:07.248Z,100551.53
2018-08-17T19:05:36.039Z,100565.09
2018-08-17T19:08:05.125Z,100564.45
2018-08-17T19:10:33.912Z,100560.75
2018-08-17T19:13:02.822Z,100559.41
2018-08-17T19:15:39.702Z,100559.56
2018-08-17T19:18:08.373Z,100552.39
2018-08-17T19:20:37.055Z,100552.55
2018-08-17T19:23:05.954Z,100552.89
2018-08-17T19:25:39.711Z,100549.37
2018-08-17T19:28:08.440Z,100564.77
2018-08-17T19:30:37.415Z,100557.41
2018-08-17T19:33:09.535Z,100555.72
2018-08-17T19:35:43.019Z,100566.45
2018-08-17T19:38:12.281Z,100566.12
2018-08-17T19:40:41.415Z,100564.77
2018-08-17T19:43:10.211Z,100560.24
2018-08-17T19:45:39.146Z,100561.60
2018-08-17T19:48:08.214Z,100563.11
2018-08-17T19:50:37.369Z,100565.98
2018-08-17T19:53:06.817Z,100562.11
2018-08-17T19:55:35.742Z,100571.98
2018-08-17T19:58:04.607Z,100569.98
2018-08-17T20:00:33.531Z,100567.66
2018-08-17T20:03:02.370Z,100561.11
2018-08-17T20:05:31.157Z,100571.50
2018-08-17T20:08:00.019Z,100560.61
2018-08-17T20:10:28.757Z,100559.79
2018-08-17T20:12:57.534Z,100562.28
2018-08-17T20:15:26.323Z,100562.78
2018-08-17T20:17:55.017Z,100561.28
2018-08-17T20:20:23.842Z,100552.07
2018-08-17T20:22:58.095Z,100550.08
2018-08-17T20:25:27.124Z,100545.53
2018-08-17T20:27:56.105Z,100550.89
2018-08-17T20:30:25.743Z,100543.53
2018-08-17T20:32:54.718Z,100538.37
2018-08-17T20:35:23.769Z,100537.52
2018-08-17T20:37:53.889Z,100547.72
2018-08-17T20:40:22.848Z,100537.34
2018-08-17T20:42:51.831Z,100545.05
2018-08-17T20:45:23.151Z,100545.37
2018-08-17T20:47:52.862Z,100544.53
2018-08-17T20:50:21.763Z,100536.34
2018-08-17T20:52:56.614Z,100533.51
2018-08-17T20:55:25.730Z,100563.80
2018-08-17T20:57:56.044Z,100528.48
2018-08-17T21:00:26.420Z,100543.37
2018-08-17T21:02:55.819Z,100539.34
2018-08-17T21:05:24.560Z,100535.52
2018-08-17T21:07:53.335Z,100537.51
2018-08-17T21:10:22.240Z,100542.36
2018-08-17T21:12:51.368Z,100542.54
2018-08-17T21:15:20.223Z,100548.22
2018-08-17T21:17:49.486Z,100543.53
2018-08-17T21:20:18.346Z,100539.86
2018-08-17T21:22:47.243Z,100541.34
2018-08-17T21:25:15.977Z,100552.53
2018-08-17T21:27:44.858Z,100553.03
2018-08-17T21:30:13.495Z,100555.20
2018-08-17T21:32:42.591Z,100559.72
2018-08-17T21:35:11.684Z,100562.40
2018-08-17T21:37:40.687Z,100564.23
2018-08-17T21:40:42.175Z,100561.02
2018-08-17T21:43:11.024Z,100559.02
2018-08-17T21:45:39.905Z,100563.72
2018-08-17T21:48:15.230Z,100568.70
2018-08-17T21:50:44.243Z,100563.00
2018-08-17T21:53:13.355Z,100564.88
2018-08-17T21:55:42.192Z,100558.81
2018-08-17T21:58:10.917Z,100559.31
2018-08-17T22:00:39.721Z,100564.66
2018-08-17T22:03:16.048Z,100566.63
2018-08-17T22:05:44.720Z,100560.77
2018-08-17T22:08:13.444Z,100564.95
2018-08-17T22:10:42.466Z,100572.97
2018-08-17T22:13:22.419Z,100589.17
2018-08-17T22:15:51.076Z,100595.82
2018-08-17T22:18:20.080Z,100612.91
2018-08-17T22:20:48.865Z,100613.70
2018-08-17T22:23:17.646Z,100618.86
2018-08-17T22:25:46.584Z,100628.86
2018-08-17T22:28:15.866Z,100634.05
2018-08-17T22:30:45.714Z,100635.89
2018-08-17T22:33:14.991Z,100635.73
2018-08-17T22:35:44.276Z,100633.21
2018-08-17T22:38:13.299Z,100636.87
2018-08-17T22:40:42.266Z,100639.55
2018-08-17T22:43:10.888Z,100635.55
2018-08-17T22:45:40.001Z,100632.70
2018-08-17T22:48:09.305Z,100633.85
2018-08-17T22:50:38.278Z,100630.98
2018-08-17T22:53:07.062Z,100620.93
2018-08-17T22:55:35.832Z,100621.96
2018-08-17T22:58:04.750Z,100621.62
2018-08-17T23:04:15.222Z,100625.22
2018-08-17T23:06:44.628Z,100630.29
2018-08-17T23:09:13.547Z,100629.42
2018-08-17T23:11:42.391Z,100625.02
2018-08-17T23:14:17.161Z,100626.29
2018-08-17T23:16:46.968Z,100634.56
2018-08-17T23:19:15.960Z,100634.55
2018-08-17T23:21:44.993Z,100637.80
2018-08-17T23:24:13.807Z,100638.92
2018-08-17T23:26:42.828Z,100632.52
2018-08-17T23:29:12.034Z,100628.98
2018-08-17T23:31:40.810Z,100634.61
2018-08-17T23:34:10.025Z,100642.88
2018-08-17T23:36:39.229Z,100654.31
2018-08-17T23:39:09.465Z,100663.56
2018-08-17T23:41:38.555Z,100665.36
2018-08-17T23:44:07.201Z,100666.80
2018-08-17T23:46:36.100Z,100666.88
2018-08-17T23:49:04.951Z,100667.31
2018-08-17T23:51:33.885Z,100665.70
2018-08-17T23:54:02.609Z,100665.28
2018-08-17T23:56:31.615Z,100663.70
2018-08-17T23:59:00.531Z,100670.02
